sensor_id;sensor_type;location;lat;lon;timestamp;P1;durP1;ratioP1;P2;durP2;ratioP2
73168;SDS011;61379;59.732;30.468;2022-11-09T00:00:04;8.70;;;8.20;;
73168;SDS011;61379;59.732;30.468;2022-11-09T00:02:33;9.00;;;8.50;;
73168;SDS011;61379;59.732;30.468;2022-11-09T00:04:59;9.00;;;8.38;;
73168;SDS011;61379;59.732;30.468;2022-11-09T00:07:28;9.13;;;8.52;;
73168;SDS011;61379;59.732;30.468;2022-11-09T00:09:55;8.98;;;8.35;;
73168;SDS011;61379;59.732;30.468;2022-11-09T00:12:21;8.93;;;8.43;;
73168;SDS011;61379;59.732;30.468;2022-11-09T00:14:48;8.45;;;7.93;;
73168;SDS011;61379;59.732;30.468;2022-11-09T00:17:15;8.60;;;8.10;;
73168;SDS011;61379;59.732;30.468;2022-11-09T00:19:43;8.35;;;7.85;;
73168;SDS011;61379;59.732;30.468;2022-11-09T00:22:09;9.00;;;8.40;;
73168;SDS011;61379;59.732;30.468;2022-11-09T00:24:36;8.95;;;8.45;;
73168;SDS011;61379;59.732;30.468;2022-11-09T00:27:03;8.75;;;8.25;;
73168;SDS011;61379;59.732;30.468;2022-11-09T00:29:29;8.07;;;7.57;;
73168;SDS011;61379;59.732;30.468;2022-11-09T00:31:56;8.88;;;8.27;;
73168;SDS011;61379;59.732;30.468;2022-11-09T00:34:23;8.52;;;8.02;;
73168;SDS011;61379;59.732;30.468;2022-11-09T00:36:51;7.53;;;7.13;;
73168;SDS011;61379;59.732;30.468;2022-11-09T00:39:17;8.57;;;8.07;;
73168;SDS011;61379;59.732;30.468;2022-11-09T00:41:44;9.43;;;8.70;;
73168;SDS011;61379;59.732;30.468;2022-11-09T00:44:11;8.90;;;8.40;;
73168;SDS011;61379;59.732;30.468;2022-11-09T00:46:37;8.93;;;8.43;;
73168;SDS011;61379;59.732;30.468;2022-11-09T00:49:04;8.95;;;8.45;;
73168;SDS011;61379;59.732;30.468;2022-11-09T00:51:31;9.23;;;8.73;;
73168;SDS011;61379;59.732;30.468;2022-11-09T00:53:59;9.02;;;8.52;;
73168;SDS011;61379;59.732;30.468;2022-11-09T00:56:26;8.88;;;8.18;;
73168;SDS011;61379;59.732;30.468;2022-11-09T00:58:52;9.60;;;8.90;;
73168;SDS011;61379;59.732;30.468;2022-11-09T01:01:20;8.85;;;8.32;;
73168;SDS011;61379;59.732;30.468;2022-11-09T01:03:47;8.95;;;8.35;;
73168;SDS011;61379;59.732;30.468;2022-11-09T01:06:14;9.13;;;8.52;;
73168;SDS011;61379;59.732;30.468;2022-11-09T01:08:41;9.43;;;8.93;;
73168;SDS011;61379;59.732;30.468;2022-11-09T01:11:09;9.70;;;9.10;;
73168;SDS011;61379;59.732;30.468;2022-11-09T01:13:36;9.00;;;8.40;;
73168;SDS011;61379;59.732;30.468;2022-11-09T01:16:03;9.75;;;9.05;;
73168;SDS011;61379;59.732;30.468;2022-11-09T01:18:30;9.73;;;9.13;;
73168;SDS011;61379;59.732;30.468;2022-11-09T01:20:57;9.85;;;9.15;;
73168;SDS011;61379;59.732;30.468;2022-11-09T01:23:24;9.57;;;8.98;;
73168;SDS011;61379;59.732;30.468;2022-11-09T01:25:56;9.65;;;8.98;;
73168;SDS011;61379;59.732;30.468;2022-11-09T01:28:24;9.10;;;8.25;;
73168;SDS011;61379;59.732;30.468;2022-11-09T01:30:51;9.45;;;8.85;;
73168;SDS011;61379;59.732;30.468;2022-11-09T01:33:18;9.10;;;8.50;;
73168;SDS011;61379;59.732;30.468;2022-11-09T01:35:45;9.63;;;9.02;;
73168;SDS011;61379;59.732;30.468;2022-11-09T01:38:11;8.75;;;8.13;;
73168;SDS011;61379;59.732;30.468;2022-11-09T01:40:38;8.63;;;7.78;;
73168;SDS011;61379;59.732;30.468;2022-11-09T01:43:06;9.40;;;8.90;;
73168;SDS011;61379;59.732;30.468;2022-11-09T01:45:40;9.70;;;9.05;;
73168;SDS011;61379;59.732;30.468;2022-11-09T01:48:09;9.40;;;8.70;;
73168;SDS011;61379;59.732;30.468;2022-11-09T01:50:38;10.02;;;9.32;;
73168;SDS011;61379;59.732;30.468;2022-11-09T01:53:07;8.85;;;8.25;;
73168;SDS011;61379;59.732;30.468;2022-11-09T01:55:35;9.93;;;9.23;;
73168;SDS011;61379;59.732;30.468;2022-11-09T01:58:03;9.38;;;8.85;;
73168;SDS011;61379;59.732;30.468;2022-11-09T02:00:31;9.77;;;9.10;;
73168;SDS011;61379;59.732;30.468;2022-11-09T02:03:01;9.80;;;9.00;;
73168;SDS011;61379;59.732;30.468;2022-11-09T02:05:31;9.23;;;8.73;;
73168;SDS011;61379;59.732;30.468;2022-11-09T02:07:59;10.10;;;9.50;;
73168;SDS011;61379;59.732;30.468;2022-11-09T02:10:28;10.65;;;9.85;;
73168;SDS011;61379;59.732;30.468;2022-11-09T02:12:57;10.30;;;9.52;;
73168;SDS011;61379;59.732;30.468;2022-11-09T02:15:24;10.82;;;10.00;;
73168;SDS011;61379;59.732;30.468;2022-11-09T02:17:51;11.20;;;10.10;;
73168;SDS011;61379;59.732;30.468;2022-11-09T02:20:20;10.15;;;9.55;;
73168;SDS011;61379;59.732;30.468;2022-11-09T02:22:47;10.43;;;9.63;;
73168;SDS011;61379;59.732;30.468;2022-11-09T02:25:14;10.23;;;9.52;;
73168;SDS011;61379;59.732;30.468;2022-11-09T02:27:41;10.55;;;9.48;;
73168;SDS011;61379;59.732;30.468;2022-11-09T02:30:08;10.63;;;9.82;;
73168;SDS011;61379;59.732;30.468;2022-11-09T02:32:36;10.30;;;9.60;;
73168;SDS011;61379;59.732;30.468;2022-11-09T02:35:03;10.60;;;9.88;;
73168;SDS011;61379;59.732;30.468;2022-11-09T02:37:33;11.10;;;10.25;;
73168;SDS011;61379;59.732;30.468;2022-11-09T02:40:01;11.57;;;10.55;;
73168;SDS011;61379;59.732;30.468;2022-11-09T02:42:29;11.50;;;10.38;;
73168;SDS011;61379;59.732;30.468;2022-11-09T02:44:57;11.38;;;10.40;;
73168;SDS011;61379;59.732;30.468;2022-11-09T02:47:24;9.32;;;8.63;;
73168;SDS011;61379;59.732;30.468;2022-11-09T02:49:51;10.48;;;9.73;;
73168;SDS011;61379;59.732;30.468;2022-11-09T02:52:17;11.38;;;10.52;;
73168;SDS011;61379;59.732;30.468;2022-11-09T02:54:46;11.93;;;10.25;;
73168;SDS011;61379;59.732;30.468;2022-11-09T02:57:12;10.93;;;10.07;;
73168;SDS011;61379;59.732;30.468;2022-11-09T02:59:39;10.30;;;9.30;;
73168;SDS011;61379;59.732;30.468;2022-11-09T03:02:06;10.45;;;9.55;;
73168;SDS011;61379;59.732;30.468;2022-11-09T03:04:33;9.13;;;8.48;;
73168;SDS011;61379;59.732;30.468;2022-11-09T03:06:59;10.05;;;9.15;;
73168;SDS011;61379;59.732;30.468;2022-11-09T03:09:26;9.43;;;8.82;;
73168;SDS011;61379;59.732;30.468;2022-11-09T03:11:54;9.63;;;8.82;;
73168;SDS011;61379;59.732;30.468;2022-11-09T03:14:20;10.00;;;9.27;;
73168;SDS011;61379;59.732;30.468;2022-11-09T03:16:47;10.05;;;9.23;;
73168;SDS011;61379;59.732;30.468;2022-11-09T03:19:14;10.18;;;9.48;;
73168;SDS011;61379;59.732;30.468;2022-11-09T03:21:41;9.70;;;9.10;;
73168;SDS011;61379;59.732;30.468;2022-11-09T03:24:07;10.32;;;9.63;;
73168;SDS011;61379;59.732;30.468;2022-11-09T03:26:34;10.10;;;9.43;;
73168;SDS011;61379;59.732;30.468;2022-11-09T03:29:02;10.63;;;9.65;;
73168;SDS011;61379;59.732;30.468;2022-11-09T03:31:29;11.13;;;10.23;;
73168;SDS011;61379;59.732;30.468;2022-11-09T03:33:55;11.35;;;10.23;;
73168;SDS011;61379;59.732;30.468;2022-11-09T03:36:22;10.93;;;9.93;;
73168;SDS011;61379;59.732;30.468;2022-11-09T03:38:49;11.52;;;10.70;;
73168;SDS011;61379;59.732;30.468;2022-11-09T03:41:15;11.98;;;10.90;;
73168;SDS011;61379;59.732;30.468;2022-11-09T03:43:42;10.82;;;9.77;;
73168;SDS011;61379;59.732;30.468;2022-11-09T03:46:10;10.60;;;9.75;;
73168;SDS011;61379;59.732;30.468;2022-11-09T03:48:37;11.40;;;10.40;;
73168;SDS011;61379;59.732;30.468;2022-11-09T03:51:03;11.52;;;10.35;;
73168;SDS011;61379;59.732;30.468;2022-11-09T03:53:30;11.68;;;10.68;;
73168;SDS011;61379;59.732;30.468;2022-11-09T03:55:57;11.45;;;10.55;;
73168;SDS011;61379;59.732;30.468;2022-11-09T03:58:23;13.20;;;11.57;;
73168;SDS011;61379;59.732;30.468;2022-11-09T04:00:50;11.07;;;10.18;;
73168;SDS011;61379;59.732;30.468;2022-11-09T04:03:18;10.55;;;9.57;;
73168;SDS011;61379;59.732;30.468;2022-11-09T04:05:45;11.75;;;10.75;;
73168;SDS011;61379;59.732;30.468;2022-11-09T04:08:11;11.02;;;10.02;;
73168;SDS011;61379;59.732;30.468;2022-11-09T04:10:38;10.80;;;9.93;;
73168;SDS011;61379;59.732;30.468;2022-11-09T04:13:05;10.43;;;9.60;;
73168;SDS011;61379;59.732;30.468;2022-11-09T04:15:31;10.90;;;9.90;;
73168;SDS011;61379;59.732;30.468;2022-11-09T04:17:58;10.55;;;9.65;;
73168;SDS011;61379;59.732;30.468;2022-11-09T04:20:27;10.88;;;9.98;;
73168;SDS011;61379;59.732;30.468;2022-11-09T04:22:55;10.93;;;10.10;;
73168;SDS011;61379;59.732;30.468;2022-11-09T04:25:22;10.48;;;9.68;;
73168;SDS011;61379;59.732;30.468;2022-11-09T04:27:53;11.35;;;10.43;;
73168;SDS011;61379;59.732;30.468;2022-11-09T04:30:19;10.02;;;9.05;;
73168;SDS011;61379;59.732;30.468;2022-11-09T04:32:46;10.70;;;9.80;;
73168;SDS011;61379;59.732;30.468;2022-11-09T04:35:13;11.55;;;10.45;;
73168;SDS011;61379;59.732;30.468;2022-11-09T04:37:41;11.75;;;10.52;;
73168;SDS011;61379;59.732;30.468;2022-11-09T04:40:08;11.00;;;10.10;;
73168;SDS011;61379;59.732;30.468;2022-11-09T04:42:35;11.63;;;10.63;;
73168;SDS011;61379;59.732;30.468;2022-11-09T04:45:01;12.45;;;11.32;;
73168;SDS011;61379;59.732;30.468;2022-11-09T04:47:29;12.57;;;11.32;;
73168;SDS011;61379;59.732;30.468;2022-11-09T04:49:55;12.80;;;11.63;;
73168;SDS011;61379;59.732;30.468;2022-11-09T04:52:22;11.48;;;10.57;;
73168;SDS011;61379;59.732;30.468;2022-11-09T04:54:50;11.88;;;10.85;;
73168;SDS011;61379;59.732;30.468;2022-11-09T04:57:17;11.50;;;10.52;;
73168;SDS011;61379;59.732;30.468;2022-11-09T04:59:43;11.98;;;11.02;;
73168;SDS011;61379;59.732;30.468;2022-11-09T05:02:10;11.27;;;10.35;;
73168;SDS011;61379;59.732;30.468;2022-11-09T05:04:37;11.63;;;10.63;;
73168;SDS011;61379;59.732;30.468;2022-11-09T05:07:03;12.98;;;11.77;;
73168;SDS011;61379;59.732;30.468;2022-11-09T05:09:30;10.05;;;9.23;;
73168;SDS011;61379;59.732;30.468;2022-11-09T05:11:58;11.38;;;10.43;;
73168;SDS011;61379;59.732;30.468;2022-11-09T05:14:25;11.07;;;10.07;;
73168;SDS011;61379;59.732;30.468;2022-11-09T05:16:51;11.65;;;10.63;;
73168;SDS011;61379;59.732;30.468;2022-11-09T05:19:18;11.43;;;10.45;;
73168;SDS011;61379;59.732;30.468;2022-11-09T05:21:44;10.98;;;10.10;;
73168;SDS011;61379;59.732;30.468;2022-11-09T05:24:11;10.73;;;9.85;;
73168;SDS011;61379;59.732;30.468;2022-11-09T05:26:38;11.15;;;10.10;;
73168;SDS011;61379;59.732;30.468;2022-11-09T05:29:07;11.13;;;10.13;;
73168;SDS011;61379;59.732;30.468;2022-11-09T05:31:34;11.60;;;10.57;;
73168;SDS011;61379;59.732;30.468;2022-11-09T05:34:01;11.13;;;10.13;;
73168;SDS011;61379;59.732;30.468;2022-11-09T05:36:28;11.70;;;10.50;;
73168;SDS011;61379;59.732;30.468;2022-11-09T05:38:55;11.57;;;10.70;;
73168;SDS011;61379;59.732;30.468;2022-11-09T05:41:22;11.30;;;10.30;;
73168;SDS011;61379;59.732;30.468;2022-11-09T05:43:48;11.25;;;10.25;;
73168;SDS011;61379;59.732;30.468;2022-11-09T05:46:17;11.57;;;10.57;;
73168;SDS011;61379;59.732;30.468;2022-11-09T05:48:44;11.68;;;10.55;;
73168;SDS011;61379;59.732;30.468;2022-11-09T05:51:11;11.93;;;10.88;;
73168;SDS011;61379;59.732;30.468;2022-11-09T05:53:38;12.00;;;10.80;;
73168;SDS011;61379;59.732;30.468;2022-11-09T05:56:05;11.05;;;10.13;;
73168;SDS011;61379;59.732;30.468;2022-11-09T05:58:33;11.20;;;10.27;;
73168;SDS011;61379;59.732;30.468;2022-11-09T06:01:01;11.20;;;9.95;;
73168;SDS011;61379;59.732;30.468;2022-11-09T06:03:29;10.77;;;9.98;;
73168;SDS011;61379;59.732;30.468;2022-11-09T06:05:59;11.82;;;10.75;;
73168;SDS011;61379;59.732;30.468;2022-11-09T06:08:25;11.63;;;10.35;;
73168;SDS011;61379;59.732;30.468;2022-11-09T06:10:56;10.82;;;9.93;;
73168;SDS011;61379;59.732;30.468;2022-11-09T06:13:23;11.63;;;10.77;;
73168;SDS011;61379;59.732;30.468;2022-11-09T06:15:51;11.70;;;10.60;;
73168;SDS011;61379;59.732;30.468;2022-11-09T06:18:18;11.50;;;10.43;;
73168;SDS011;61379;59.732;30.468;2022-11-09T06:20:46;10.98;;;10.07;;
73168;SDS011;61379;59.732;30.468;2022-11-09T06:23:12;11.75;;;10.63;;
73168;SDS011;61379;59.732;30.468;2022-11-09T06:25:39;11.70;;;10.70;;
73168;SDS011;61379;59.732;30.468;2022-11-09T06:28:05;12.98;;;11.10;;
73168;SDS011;61379;59.732;30.468;2022-11-09T06:30:32;12.25;;;10.90;;
73168;SDS011;61379;59.732;30.468;2022-11-09T06:32:59;11.65;;;10.63;;
73168;SDS011;61379;59.732;30.468;2022-11-09T06:35:26;11.27;;;10.35;;
73168;SDS011;61379;59.732;30.468;2022-11-09T06:37:55;11.35;;;10.43;;
73168;SDS011;61379;59.732;30.468;2022-11-09T06:40:22;10.65;;;9.75;;
73168;SDS011;61379;59.732;30.468;2022-11-09T06:42:49;10.95;;;9.85;;
73168;SDS011;61379;59.732;30.468;2022-11-09T06:45:16;11.13;;;10.15;;
73168;SDS011;61379;59.732;30.468;2022-11-09T06:47:42;10.02;;;9.23;;
73168;SDS011;61379;59.732;30.468;2022-11-09T06:50:09;11.10;;;10.30;;
73168;SDS011;61379;59.732;30.468;2022-11-09T06:52:36;10.77;;;9.88;;
73168;SDS011;61379;59.732;30.468;2022-11-09T06:55:05;10.95;;;10.15;;
73168;SDS011;61379;59.732;30.468;2022-11-09T06:57:32;10.52;;;9.77;;
73168;SDS011;61379;59.732;30.468;2022-11-09T06:59:59;11.43;;;10.48;;
73168;SDS011;61379;59.732;30.468;2022-11-09T07:02:25;10.90;;;10.07;;
73168;SDS011;61379;59.732;30.468;2022-11-09T07:04:52;10.02;;;9.13;;
73168;SDS011;61379;59.732;30.468;2022-11-09T07:07:19;10.45;;;9.65;;
73168;SDS011;61379;59.732;30.468;2022-11-09T07:09:45;10.68;;;9.98;;
73168;SDS011;61379;59.732;30.468;2022-11-09T07:12:14;10.68;;;9.98;;
73168;SDS011;61379;59.732;30.468;2022-11-09T07:14:40;10.95;;;10.05;;
73168;SDS011;61379;59.732;30.468;2022-11-09T07:17:07;10.95;;;10.15;;
73168;SDS011;61379;59.732;30.468;2022-11-09T07:19:33;10.52;;;9.88;;
73168;SDS011;61379;59.732;30.468;2022-11-09T07:22:00;10.45;;;9.75;;
73168;SDS011;61379;59.732;30.468;2022-11-09T07:24:27;10.88;;;10.07;;
73168;SDS011;61379;59.732;30.468;2022-11-09T07:26:53;10.80;;;10.10;;
73168;SDS011;61379;59.732;30.468;2022-11-09T07:29:21;11.63;;;10.77;;
73168;SDS011;61379;59.732;30.468;2022-11-09T07:31:48;10.77;;;10.07;;
73168;SDS011;61379;59.732;30.468;2022-11-09T07:34:15;10.32;;;9.70;;
73168;SDS011;61379;59.732;30.468;2022-11-09T07:36:41;10.70;;;9.85;;
73168;SDS011;61379;59.732;30.468;2022-11-09T07:39:08;11.00;;;10.00;;
73168;SDS011;61379;59.732;30.468;2022-11-09T07:41:35;10.73;;;9.90;;
73168;SDS011;61379;59.732;30.468;2022-11-09T07:44:02;9.70;;;9.10;;
73168;SDS011;61379;59.732;30.468;2022-11-09T07:46:30;10.40;;;9.73;;
73168;SDS011;61379;59.732;30.468;2022-11-09T07:48:56;10.27;;;9.68;;
73168;SDS011;61379;59.732;30.468;2022-11-09T07:51:23;9.80;;;9.20;;
73168;SDS011;61379;59.732;30.468;2022-11-09T07:53:50;9.70;;;9.20;;
73168;SDS011;61379;59.732;30.468;2022-11-09T07:56:16;10.40;;;9.80;;
73168;SDS011;61379;59.732;30.468;2022-11-09T07:58:43;10.88;;;10.18;;
73168;SDS011;61379;59.732;30.468;2022-11-09T08:01:10;11.38;;;10.50;;
73168;SDS011;61379;59.732;30.468;2022-11-09T08:03:38;8.38;;;7.88;;
73168;SDS011;61379;59.732;30.468;2022-11-09T08:06:05;10.93;;;10.13;;
73168;SDS011;61379;59.732;30.468;2022-11-09T08:08:31;11.05;;;10.35;;
73168;SDS011;61379;59.732;30.468;2022-11-09T08:10:58;11.20;;;10.38;;
73168;SDS011;61379;59.732;30.468;2022-11-09T08:13:25;10.60;;;9.82;;
73168;SDS011;61379;59.732;30.468;2022-11-09T08:15:52;10.30;;;9.68;;
73168;SDS011;61379;59.732;30.468;2022-11-09T08:18:19;10.13;;;9.43;;
73168;SDS011;61379;59.732;30.468;2022-11-09T08:20:47;11.02;;;10.23;;
73168;SDS011;61379;59.732;30.468;2022-11-09T08:23:15;8.95;;;8.30;;
73168;SDS011;61379;59.732;30.468;2022-11-09T08:25:42;9.73;;;9.13;;
73168;SDS011;61379;59.732;30.468;2022-11-09T08:28:08;10.85;;;9.90;;
73168;SDS011;61379;59.732;30.468;2022-11-09T08:30:35;10.35;;;9.65;;
73168;SDS011;61379;59.732;30.468;2022-11-09T08:33:02;9.75;;;9.05;;
73168;SDS011;61379;59.732;30.468;2022-11-09T08:35:29;10.52;;;9.73;;
73168;SDS011;61379;59.732;30.468;2022-11-09T08:37:59;10.02;;;9.32;;
73168;SDS011;61379;59.732;30.468;2022-11-09T08:40:25;9.90;;;9.15;;
73168;SDS011;61379;59.732;30.468;2022-11-09T08:42:52;10.27;;;9.57;;
73168;SDS011;61379;59.732;30.468;2022-11-09T08:45:19;9.80;;;9.10;;
73168;SDS011;61379;59.732;30.468;2022-11-09T08:47:46;9.80;;;9.02;;
73168;SDS011;61379;59.732;30.468;2022-11-09T08:50:13;11.00;;;9.93;;
73168;SDS011;61379;59.732;30.468;2022-11-09T08:52:40;10.05;;;9.32;;
73168;SDS011;61379;59.732;30.468;2022-11-09T08:55:08;10.15;;;9.23;;
73168;SDS011;61379;59.732;30.468;2022-11-09T08:57:35;10.80;;;9.70;;
73168;SDS011;61379;59.732;30.468;2022-11-09T09:00:02;10.27;;;9.50;;
73168;SDS011;61379;59.732;30.468;2022-11-09T09:02:30;10.18;;;9.48;;
73168;SDS011;61379;59.732;30.468;2022-11-09T09:04:56;10.95;;;9.85;;
73168;SDS011;61379;59.732;30.468;2022-11-09T09:07:23;13.10;;;11.90;;
73168;SDS011;61379;59.732;30.468;2022-11-09T09:09:50;11.45;;;10.55;;
73168;SDS011;61379;59.732;30.468;2022-11-09T09:12:18;11.90;;;10.68;;
73168;SDS011;61379;59.732;30.468;2022-11-09T09:14:44;12.32;;;11.02;;
73168;SDS011;61379;59.732;30.468;2022-11-09T09:17:11;11.82;;;10.68;;
73168;SDS011;61379;59.732;30.468;2022-11-09T09:19:38;16.08;;;11.52;;
73168;SDS011;61379;59.732;30.468;2022-11-09T09:22:04;12.38;;;10.95;;
73168;SDS011;61379;59.732;30.468;2022-11-09T09:24:31;13.50;;;12.20;;
73168;SDS011;61379;59.732;30.468;2022-11-09T09:26:58;13.55;;;12.20;;
73168;SDS011;61379;59.732;30.468;2022-11-09T09:29:26;13.90;;;12.52;;
73168;SDS011;61379;59.732;30.468;2022-11-09T09:31:53;13.68;;;12.38;;
73168;SDS011;61379;59.732;30.468;2022-11-09T09:34:19;12.55;;;10.07;;
73168;SDS011;61379;59.732;30.468;2022-11-09T09:36:46;18.42;;;12.48;;
73168;SDS011;61379;59.732;30.468;2022-11-09T09:39:13;20.77;;;13.45;;
73168;SDS011;61379;59.732;30.468;2022-11-09T09:41:40;20.08;;;13.55;;
73168;SDS011;61379;59.732;30.468;2022-11-09T09:44:12;14.40;;;12.43;;
73168;SDS011;61379;59.732;30.468;2022-11-09T09:46:43;13.90;;;11.98;;
73168;SDS011;61379;59.732;30.468;2022-11-09T09:49:13;20.08;;;12.85;;
73168;SDS011;61379;59.732;30.468;2022-11-09T09:51:41;15.25;;;12.90;;
73168;SDS011;61379;59.732;30.468;2022-11-09T09:54:10;16.08;;;12.93;;
73168;SDS011;61379;59.732;30.468;2022-11-09T09:56:39;15.63;;;12.90;;
73168;SDS011;61379;59.732;30.468;2022-11-09T09:59:09;15.18;;;13.30;;
73168;SDS011;61379;59.732;30.468;2022-11-09T10:01:38;24.95;;;15.00;;
73168;SDS011;61379;59.732;30.468;2022-11-09T10:04:09;22.45;;;14.70;;
73168;SDS011;61379;59.732;30.468;2022-11-09T10:06:41;19.70;;;15.05;;
73168;SDS011;61379;59.732;30.468;2022-11-09T10:11:37;18.92;;;15.07;;
73168;SDS011;61379;59.732;30.468;2022-11-09T10:14:11;20.38;;;15.32;;
73168;SDS011;61379;59.732;30.468;2022-11-09T10:16:40;19.33;;;15.18;;
73168;SDS011;61379;59.732;30.468;2022-11-09T10:21:38;22.52;;;16.38;;
73168;SDS011;61379;59.732;30.468;2022-11-09T10:24:13;25.60;;;16.25;;
73168;SDS011;61379;59.732;30.468;2022-11-09T10:26:45;24.23;;;16.48;;
73168;SDS011;61379;59.732;30.468;2022-11-09T10:29:15;23.20;;;17.05;;
73168;SDS011;61379;59.732;30.468;2022-11-09T10:31:44;19.13;;;14.98;;
73168;SDS011;61379;59.732;30.468;2022-11-09T10:34:15;18.17;;;14.43;;
73168;SDS011;61379;59.732;30.468;2022-11-09T10:36:44;20.92;;;14.55;;
73168;SDS011;61379;59.732;30.468;2022-11-09T10:39:12;20.55;;;14.98;;
73168;SDS011;61379;59.732;30.468;2022-11-09T10:41:41;20.67;;;14.00;;
73168;SDS011;61379;59.732;30.468;2022-11-09T10:44:12;18.13;;;13.70;;
73168;SDS011;61379;59.732;30.468;2022-11-09T10:49:21;16.23;;;14.18;;
73168;SDS011;61379;59.732;30.468;2022-11-09T10:51:49;24.05;;;14.88;;
73168;SDS011;61379;59.732;30.468;2022-11-09T10:54:17;20.02;;;15.25;;
73168;SDS011;61379;59.732;30.468;2022-11-09T10:56:45;22.05;;;14.55;;
73168;SDS011;61379;59.732;30.468;2022-11-09T10:59:34;16.73;;;13.15;;
73168;SDS011;61379;59.732;30.468;2022-11-09T11:02:01;16.85;;;14.15;;
73168;SDS011;61379;59.732;30.468;2022-11-09T11:04:28;16.10;;;12.63;;
73168;SDS011;61379;59.732;30.468;2022-11-09T11:06:56;16.60;;;13.43;;
73168;SDS011;61379;59.732;30.468;2022-11-09T11:09:23;14.65;;;12.63;;
73168;SDS011;61379;59.732;30.468;2022-11-09T11:11:50;15.70;;;12.77;;
73168;SDS011;61379;59.732;30.468;2022-11-09T11:14:31;16.77;;;10.57;;
73168;SDS011;61379;59.732;30.468;2022-11-09T11:16:58;17.83;;;12.85;;
73168;SDS011;61379;59.732;30.468;2022-11-09T11:19:27;17.63;;;13.88;;
73168;SDS011;61379;59.732;30.468;2022-11-09T11:22:08;15.60;;;13.05;;
73168;SDS011;61379;59.732;30.468;2022-11-09T11:24:40;13.20;;;11.90;;
73168;SDS011;61379;59.732;30.468;2022-11-09T11:27:09;16.98;;;12.32;;
73168;SDS011;61379;59.732;30.468;2022-11-09T11:29:38;15.55;;;13.02;;
73168;SDS011;61379;59.732;30.468;2022-11-09T11:32:07;13.32;;;11.98;;
73168;SDS011;61379;59.732;30.468;2022-11-09T11:34:34;18.83;;;13.60;;
73168;SDS011;61379;59.732;30.468;2022-11-09T11:37:06;14.32;;;12.65;;
73168;SDS011;61379;59.732;30.468;2022-11-09T11:39:42;16.23;;;13.75;;
73168;SDS011;61379;59.732;30.468;2022-11-09T11:42:29;18.08;;;13.15;;
73168;SDS011;61379;59.732;30.468;2022-11-09T11:45:12;17.88;;;13.32;;
73168;SDS011;61379;59.732;30.468;2022-11-09T11:47:42;17.08;;;14.50;;
73168;SDS011;61379;59.732;30.468;2022-11-09T11:50:19;15.30;;;11.38;;
73168;SDS011;61379;59.732;30.468;2022-11-09T11:52:50;18.73;;;12.65;;
73168;SDS011;61379;59.732;30.468;2022-11-09T11:55:31;14.02;;;12.52;;
73168;SDS011;61379;59.732;30.468;2022-11-09T11:58:03;17.15;;;12.63;;
73168;SDS011;61379;59.732;30.468;2022-11-09T12:00:34;17.40;;;12.15;;
73168;SDS011;61379;59.732;30.468;2022-11-09T12:03:12;16.33;;;12.95;;
73168;SDS011;61379;59.732;30.468;2022-11-09T12:05:47;14.65;;;13.05;;
73168;SDS011;61379;59.732;30.468;2022-11-09T12:08:17;17.48;;;10.50;;
73168;SDS011;61379;59.732;30.468;2022-11-09T12:10:51;14.98;;;12.63;;
73168;SDS011;61379;59.732;30.468;2022-11-09T12:13:33;16.90;;;12.18;;
73168;SDS011;61379;59.732;30.468;2022-11-09T12:16:01;14.55;;;13.18;;
73168;SDS011;61379;59.732;30.468;2022-11-09T12:18:37;21.27;;;13.48;;
73168;SDS011;61379;59.732;30.468;2022-11-09T12:21:16;19.35;;;14.18;;
73168;SDS011;61379;59.732;30.468;2022-11-09T12:23:49;13.63;;;12.23;;
73168;SDS011;61379;59.732;30.468;2022-11-09T12:26:23;14.52;;;12.75;;
73168;SDS011;61379;59.732;30.468;2022-11-09T12:28:58;13.93;;;12.63;;
73168;SDS011;61379;59.732;30.468;2022-11-09T12:31:32;16.35;;;12.85;;
73168;SDS011;61379;59.732;30.468;2022-11-09T12:34:01;22.30;;;13.13;;
73168;SDS011;61379;59.732;30.468;2022-11-09T12:36:30;14.02;;;12.55;;
73168;SDS011;61379;59.732;30.468;2022-11-09T12:39:00;11.93;;;10.75;;
73168;SDS011;61379;59.732;30.468;2022-11-09T12:41:30;16.80;;;12.77;;
73168;SDS011;61379;59.732;30.468;2022-11-09T12:44:00;15.07;;;13.40;;
73168;SDS011;61379;59.732;30.468;2022-11-09T12:46:29;20.73;;;13.35;;
73168;SDS011;61379;59.732;30.468;2022-11-09T12:48:58;13.50;;;11.65;;
73168;SDS011;61379;59.732;30.468;2022-11-09T12:51:27;14.30;;;12.73;;
73168;SDS011;61379;59.732;30.468;2022-11-09T12:53:54;13.23;;;10.32;;
73168;SDS011;61379;59.732;30.468;2022-11-09T12:56:22;14.85;;;12.77;;
73168;SDS011;61379;59.732;30.468;2022-11-09T12:58:51;16.95;;;12.70;;
73168;SDS011;61379;59.732;30.468;2022-11-09T13:04:00;16.13;;;13.05;;
73168;SDS011;61379;59.732;30.468;2022-11-09T13:06:27;21.05;;;13.05;;
73168;SDS011;61379;59.732;30.468;2022-11-09T13:08:56;14.07;;;12.07;;
73168;SDS011;61379;59.732;30.468;2022-11-09T13:11:33;16.42;;;12.88;;
73168;SDS011;61379;59.732;30.468;2022-11-09T13:16:47;18.92;;;13.82;;
73168;SDS011;61379;59.732;30.468;2022-11-09T13:19:47;15.05;;;13.40;;
73168;SDS011;61379;59.732;30.468;2022-11-09T13:24:56;21.95;;;15.55;;
73168;SDS011;61379;59.732;30.468;2022-11-09T13:27:37;17.33;;;14.30;;
73168;SDS011;61379;59.732;30.468;2022-11-09T13:37:59;20.05;;;13.23;;
73168;SDS011;61379;59.732;30.468;2022-11-09T13:40:38;16.00;;;13.93;;
73168;SDS011;61379;59.732;30.468;2022-11-09T13:43:12;15.25;;;12.30;;
73168;SDS011;61379;59.732;30.468;2022-11-09T13:45:40;16.50;;;14.20;;
73168;SDS011;61379;59.732;30.468;2022-11-09T13:48:21;16.48;;;14.05;;
73168;SDS011;61379;59.732;30.468;2022-11-09T13:50:49;22.15;;;14.65;;
73168;SDS011;61379;59.732;30.468;2022-11-09T13:53:28;19.23;;;15.48;;
73168;SDS011;61379;59.732;30.468;2022-11-09T13:55:55;19.98;;;15.07;;
73168;SDS011;61379;59.732;30.468;2022-11-09T13:58:24;19.15;;;14.30;;
73168;SDS011;61379;59.732;30.468;2022-11-09T14:03:20;16.90;;;13.73;;
73168;SDS011;61379;59.732;30.468;2022-11-09T14:05:48;21.13;;;13.98;;
73168;SDS011;61379;59.732;30.468;2022-11-09T14:08:18;19.60;;;13.27;;
73168;SDS011;61379;59.732;30.468;2022-11-09T14:10:53;14.23;;;12.73;;
73168;SDS011;61379;59.732;30.468;2022-11-09T14:13:43;15.23;;;12.90;;
73168;SDS011;61379;59.732;30.468;2022-11-09T14:16:12;17.65;;;13.52;;
73168;SDS011;61379;59.732;30.468;2022-11-09T14:18:50;15.13;;;12.82;;
73168;SDS011;61379;59.732;30.468;2022-11-09T14:21:24;12.55;;;11.27;;
73168;SDS011;61379;59.732;30.468;2022-11-09T14:23:52;15.20;;;12.65;;
73168;SDS011;61379;59.732;30.468;2022-11-09T14:26:21;17.23;;;12.68;;
73168;SDS011;61379;59.732;30.468;2022-11-09T14:28:48;13.38;;;11.98;;
73168;SDS011;61379;59.732;30.468;2022-11-09T14:31:22;13.65;;;11.38;;
73168;SDS011;61379;59.732;30.468;2022-11-09T14:33:57;13.10;;;11.73;;
73168;SDS011;61379;59.732;30.468;2022-11-09T14:36:23;16.08;;;12.65;;
73168;SDS011;61379;59.732;30.468;2022-11-09T14:38:50;14.27;;;12.40;;
73168;SDS011;61379;59.732;30.468;2022-11-09T14:41:18;17.63;;;12.07;;
73168;SDS011;61379;59.732;30.468;2022-11-09T14:43:47;17.83;;;12.95;;
73168;SDS011;61379;59.732;30.468;2022-11-09T14:46:15;12.10;;;10.57;;
73168;SDS011;61379;59.732;30.468;2022-11-09T14:48:48;16.70;;;12.50;;